createdAt,value
2023-01-21T00:00:56.782Z,-1.56
2023-01-21T00:03:24.030Z,-1.57
2023-01-21T00:05:51.100Z,-1.55
2023-01-21T00:08:17.925Z,-1.59
2023-01-21T00:10:44.873Z,-1.61
2023-01-21T00:13:11.662Z,-1.63
2023-01-21T00:15:38.545Z,-1.64
2023-01-21T00:18:05.474Z,-1.67
2023-01-21T00:20:32.220Z,-1.69
2023-01-21T00:22:59.026Z,-1.72
2023-01-21T00:25:25.770Z,-1.72
2023-01-21T00:27:52.571Z,-1.72
2023-01-21T00:30:19.460Z,-1.71
2023-01-21T00:32:46.386Z,-1.67
2023-01-21T00:35:13.497Z,-1.67
2023-01-21T00:37:42.441Z,-1.63
2023-01-21T00:40:09.661Z,-1.61
2023-01-21T00:42:36.434Z,-1.58
2023-01-21T00:45:06.602Z,-1.59
2023-01-21T00:47:33.450Z,-1.60
2023-01-21T00:50:00.255Z,-1.59
2023-01-21T00:52:29.391Z,-1.58
2023-01-21T00:54:56.141Z,-1.58
2023-01-21T00:57:22.935Z,-1.60
2023-01-21T00:59:49.735Z,-1.63
2023-01-21T01:02:16.542Z,-1.65
2023-01-21T01:04:43.305Z,-1.66
2023-01-21T01:07:10.987Z,-1.72
2023-01-21T01:09:39.914Z,-1.73
2023-01-21T01:12:06.868Z,-1.80
2023-01-21T01:14:36.100Z,-1.82
2023-01-21T01:17:03.259Z,-1.87
2023-01-21T01:19:29.990Z,-1.92
2023-01-21T01:21:56.759Z,-1.94
2023-01-21T01:24:23.540Z,-2.00
2023-01-21T01:26:50.457Z,-2.01
2023-01-21T01:29:18.427Z,-2.03
2023-01-21T01:31:45.451Z,-2.04
2023-01-21T01:34:12.179Z,-2.01
2023-01-21T01:36:38.899Z,-1.99
2023-01-21T01:39:05.947Z,-1.97
2023-01-21T01:41:33.168Z,-1.93
2023-01-21T01:44:01.662Z,-1.91
2023-01-21T01:46:32.692Z,-1.89
2023-01-21T01:49:02.748Z,-1.87
2023-01-21T01:51:31.810Z,-1.81
2023-01-21T01:53:58.728Z,-2.07
2023-01-21T01:56:26.479Z,-1.76
2023-01-21T01:58:53.376Z,-1.72
2023-01-21T02:01:20.332Z,-1.70
2023-01-21T02:03:53.035Z,-1.64
2023-01-21T02:06:20.090Z,-1.61
2023-01-21T02:08:47.797Z,-1.60
2023-01-21T02:11:16.215Z,-1.59
2023-01-21T02:13:44.839Z,-1.59
2023-01-21T02:16:20.433Z,-1.60
2023-01-21T02:18:53.204Z,-1.61
2023-01-21T02:21:38.757Z,-1.66
2023-01-21T02:24:17.503Z,-1.69
2023-01-21T02:27:03.155Z,-1.73
2023-01-21T02:29:29.861Z,-1.73
2023-01-21T02:32:08.711Z,-1.74
2023-01-21T02:34:35.460Z,-1.75
2023-01-21T02:37:13.898Z,-1.76
2023-01-21T02:39:49.535Z,-1.78
2023-01-21T02:42:20.576Z,-1.79
2023-01-21T02:44:53.816Z,-1.76
2023-01-21T02:47:29.405Z,-1.76
2023-01-21T02:49:58.232Z,-1.72
2023-01-21T02:52:25.356Z,-1.69
2023-01-21T02:54:55.752Z,-1.65
2023-01-21T02:57:41.100Z,-1.63
2023-01-21T03:00:18.106Z,-1.61
2023-01-21T03:02:48.088Z,-1.61
2023-01-21T03:05:20.818Z,-1.62
2023-01-21T03:08:02.769Z,-1.62
2023-01-21T03:10:36.527Z,-1.63
2023-01-21T03:13:40.985Z,-1.64
2023-01-21T03:16:27.565Z,-1.66
2023-01-21T03:18:54.947Z,-1.70
2023-01-21T03:21:27.107Z,-1.75
2023-01-21T03:23:54.702Z,-2.03
2023-01-21T03:26:26.536Z,-1.81
2023-01-21T03:28:55.306Z,-1.83
2023-01-21T03:31:25.676Z,-1.85
2023-01-21T03:33:54.746Z,-1.85
2023-01-21T03:36:32.666Z,-1.89
2023-01-21T03:39:00.138Z,-1.92
2023-01-21T03:41:34.235Z,-1.95
2023-01-21T03:44:01.158Z,-2.01
2023-01-21T03:46:36.778Z,-2.05
2023-01-21T03:49:26.595Z,-2.08
2023-01-21T03:51:56.267Z,-2.14
2023-01-21T03:54:23.276Z,-2.17
2023-01-21T03:56:50.268Z,-2.22
2023-01-21T03:59:17.018Z,-2.24
2023-01-21T04:01:43.967Z,-2.30
2023-01-21T04:04:10.683Z,-2.33
2023-01-21T04:06:37.507Z,-2.39
2023-01-21T04:09:04.979Z,-2.41
2023-01-21T04:11:31.747Z,-2.41
2023-01-21T04:13:58.461Z,-2.44
2023-01-21T04:16:25.239Z,-2.46
2023-01-21T04:18:52.064Z,-2.47
2023-01-21T04:21:18.892Z,-2.47
2023-01-21T04:23:45.604Z,-2.49
2023-01-21T04:26:12.387Z,-2.81
2023-01-21T04:28:39.106Z,-2.55
2023-01-21T04:31:05.909Z,-2.57
2023-01-21T04:33:32.684Z,-2.58
2023-01-21T04:36:00.190Z,-2.59
2023-01-21T04:38:27.615Z,-2.60
2023-01-21T04:40:54.394Z,-2.62
2023-01-21T04:43:21.190Z,-2.64
2023-01-21T04:45:48.049Z,-2.66
2023-01-21T04:48:14.726Z,-2.67
2023-01-21T04:50:41.477Z,-2.67
2023-01-21T04:53:08.216Z,-2.65
2023-01-21T04:55:35.096Z,-2.66
2023-01-21T04:58:01.899Z,-2.65
2023-01-21T05:00:28.706Z,-2.62
2023-01-21T05:02:55.416Z,-2.64
2023-01-21T05:05:22.371Z,-2.62
2023-01-21T05:07:52.043Z,-2.58
2023-01-21T05:10:19.098Z,-2.51
2023-01-21T05:12:46.267Z,-2.50
2023-01-21T05:15:13.098Z,-2.49
2023-01-21T05:17:39.788Z,-2.51
2023-01-21T05:20:06.879Z,-2.52
2023-01-21T05:22:33.616Z,-2.55
2023-01-21T05:25:01.010Z,-2.57
2023-01-21T05:27:28.198Z,-2.56
2023-01-21T05:29:55.061Z,-2.59
2023-01-21T05:32:24.055Z,-2.57
2023-01-21T05:34:50.838Z,-2.57
2023-01-21T05:37:17.659Z,-2.55
2023-01-21T05:39:44.767Z,-2.59
2023-01-21T05:42:11.755Z,-2.55
2023-01-21T05:44:38.546Z,-2.53
2023-01-21T05:47:05.310Z,-2.52
2023-01-21T05:49:32.149Z,-2.51
2023-01-21T05:51:58.859Z,-2.50
2023-01-21T05:54:25.657Z,-2.51
2023-01-21T05:56:52.626Z,-2.53
2023-01-21T05:59:19.425Z,-2.54
2023-01-21T06:01:46.116Z,-2.56
2023-01-21T06:04:13.148Z,-2.58
2023-01-21T06:06:40.792Z,-2.59
2023-01-21T06:09:07.636Z,-2.60
2023-01-21T06:11:34.389Z,-2.60
2023-01-21T06:14:01.157Z,-2.62
2023-01-21T06:16:27.816Z,-2.60
2023-01-21T06:18:54.576Z,-2.58
2023-01-21T06:21:21.346Z,-2.55
2023-01-21T06:23:48.340Z,-2.54
2023-01-21T06:26:15.186Z,-2.47
2023-01-21T06:28:44.656Z,-2.41
2023-01-21T06:31:11.340Z,-2.40
2023-01-21T06:33:38.196Z,-2.40
2023-01-21T06:36:05.226Z,-2.34
2023-01-21T06:38:36.074Z,-2.32
2023-01-21T06:41:05.582Z,-2.29
2023-01-21T06:43:32.356Z,-2.30
2023-01-21T06:45:59.197Z,-2.31
2023-01-21T06:48:25.932Z,-2.31
2023-01-21T06:50:52.879Z,-2.26
2023-01-21T06:53:19.657Z,-2.25
2023-01-21T06:55:48.169Z,-2.21
2023-01-21T06:58:15.550Z,-2.16
2023-01-21T07:00:45.610Z,-2.12
2023-01-21T07:03:12.407Z,-2.07
2023-01-21T07:05:39.067Z,-2.02
2023-01-21T07:08:06.032Z,-1.97
2023-01-21T07:10:32.788Z,-1.97
2023-01-21T07:12:59.657Z,-1.91
2023-01-21T07:15:30.945Z,-1.85
2023-01-21T07:17:57.818Z,-1.80
2023-01-21T07:20:24.539Z,-1.72
2023-01-21T07:22:51.450Z,-1.63
2023-01-21T07:25:18.599Z,-1.58
2023-01-21T07:27:45.477Z,-1.51
2023-01-21T07:30:21.390Z,-1.46
2023-01-21T07:32:48.359Z,-1.36
2023-01-21T07:35:15.595Z,-1.54
2023-01-21T07:37:42.692Z,-1.21
2023-01-21T07:40:09.673Z,-1.15
2023-01-21T07:42:36.459Z,-1.09
2023-01-21T07:45:04.218Z,-1.02
2023-01-21T07:47:31.178Z,-0.96
2023-01-21T07:50:05.063Z,-0.89
2023-01-21T07:52:32.300Z,-0.81
2023-01-21T07:54:58.991Z,-0.74
2023-01-21T07:57:25.799Z,-0.68
2023-01-21T07:59:55.178Z,-0.58
2023-01-21T08:02:22.265Z,-0.51
2023-01-21T08:04:49.106Z,-0.44
2023-01-21T08:07:18.060Z,-0.36
2023-01-21T08:09:44.827Z,-0.28
2023-01-21T08:12:11.740Z,-0.19
2023-01-21T08:14:41.130Z,-0.09
2023-01-21T08:17:08.148Z,-0.02
2023-01-21T08:19:34.857Z,0.06
2023-01-21T08:22:01.619Z,0.15
2023-01-21T08:24:28.298Z,0.27
